sensor_id;sensor_type;location;lat;lon;timestamp;pressure;altitude;pressure_sealevel;temperature;humidity
59063;BME280;44851;45.648;9.004;2022-08-05T00:00:14;98870.56;;;27.72;43.73
59063;BME280;44851;45.648;9.004;2022-08-05T00:02:40;98874.81;;;27.68;43.67
59063;BME280;44851;45.648;9.004;2022-08-05T00:05:05;98874.09;;;27.50;43.31
59063;BME280;44851;45.648;9.004;2022-08-05T00:07:31;98872.78;;;27.53;43.12
59063;BME280;44851;45.648;9.004;2022-08-05T00:09:56;98874.63;;;27.52;43.36
59063;BME280;44851;45.648;9.004;2022-08-05T00:12:22;98870.84;;;27.48;43.04
59063;BME280;44851;45.648;9.004;2022-08-05T00:14:47;98871.63;;;27.44;43.65
59063;BME280;44851;45.648;9.004;2022-08-05T00:17:12;98878.06;;;27.48;43.33
59063;BME280;44851;45.648;9.004;2022-08-05T00:19:38;98872.44;;;27.44;44.06
59063;BME280;44851;45.648;9.004;2022-08-05T00:22:03;98875.72;;;27.51;43.99
59063;BME280;44851;45.648;9.004;2022-08-05T00:24:29;98879.94;;;27.47;44.03
59063;BME280;44851;45.648;9.004;2022-08-05T00:26:54;98879.03;;;27.37;43.60
59063;BME280;44851;45.648;9.004;2022-08-05T00:29:20;98880.47;;;27.44;43.03
59063;BME280;44851;45.648;9.004;2022-08-05T00:31:46;98877.22;;;27.42;43.40
59063;BME280;44851;45.648;9.004;2022-08-05T00:34:11;98873.41;;;27.33;43.20
59063;BME280;44851;45.648;9.004;2022-08-05T00:36:37;98870.19;;;27.36;43.33
59063;BME280;44851;45.648;9.004;2022-08-05T00:39:02;98862.69;;;27.33;43.10
59063;BME280;44851;45.648;9.004;2022-08-05T00:41:31;98868.03;;;27.33;43.23
59063;BME280;44851;45.648;9.004;2022-08-05T00:43:56;98876.03;;;27.28;43.32
59063;BME280;44851;45.648;9.004;2022-08-05T00:46:22;98871.97;;;27.25;43.43
59063;BME280;44851;45.648;9.004;2022-08-05T00:48:48;98866.81;;;27.19;43.81
59063;BME280;44851;45.648;9.004;2022-08-05T00:51:14;98867.94;;;27.23;43.38
59063;BME280;44851;45.648;9.004;2022-08-05T00:53:39;98865.50;;;27.21;43.89
59063;BME280;44851;45.648;9.004;2022-08-05T00:56:05;98877.00;;;27.22;43.70
59063;BME280;44851;45.648;9.004;2022-08-05T00:58:31;98872.81;;;27.31;43.58
59063;BME280;44851;45.648;9.004;2022-08-05T01:00:56;98879.13;;;27.20;43.37
59063;BME280;44851;45.648;9.004;2022-08-05T01:03:22;98876.41;;;27.15;43.64
59063;BME280;44851;45.648;9.004;2022-08-05T01:05:50;98879.00;;;27.10;43.32
59063;BME280;44851;45.648;9.004;2022-08-05T01:08:16;98878.47;;;27.08;44.04
59063;BME280;44851;45.648;9.004;2022-08-05T01:10:47;98881.25;;;26.96;43.66
59063;BME280;44851;45.648;9.004;2022-08-05T01:13:28;98877.72;;;26.95;44.19
59063;BME280;44851;45.648;9.004;2022-08-05T01:15:59;98870.91;;;27.05;43.91
59063;BME280;44851;45.648;9.004;2022-08-05T01:18:31;98871.28;;;26.91;43.47
59063;BME280;44851;45.648;9.004;2022-08-05T01:21:11;98870.09;;;26.82;44.13
59063;BME280;44851;45.648;9.004;2022-08-05T01:29:28;98869.41;;;26.70;44.60
59063;BME280;44851;45.648;9.004;2022-08-05T01:31:59;98865.28;;;26.84;44.77
59063;BME280;44851;45.648;9.004;2022-08-05T01:34:38;98863.19;;;26.86;44.72
59063;BME280;44851;45.648;9.004;2022-08-05T01:37:17;98867.91;;;26.79;44.97
59063;BME280;44851;45.648;9.004;2022-08-05T01:39:45;98861.00;;;26.83;44.86
59063;BME280;44851;45.648;9.004;2022-08-05T01:42:12;98865.50;;;26.78;44.66
59063;BME280;44851;45.648;9.004;2022-08-05T01:44:39;98854.19;;;26.70;44.15
59063;BME280;44851;45.648;9.004;2022-08-05T01:47:05;98863.56;;;26.73;44.84
59063;BME280;44851;45.648;9.004;2022-08-05T01:49:32;98861.31;;;26.65;44.34
59063;BME280;44851;45.648;9.004;2022-08-05T01:52:00;98860.00;;;26.67;43.70
59063;BME280;44851;45.648;9.004;2022-08-05T01:54:39;98868.09;;;26.72;44.15
59063;BME280;44851;45.648;9.004;2022-08-05T01:57:05;98864.34;;;26.73;44.29
59063;BME280;44851;45.648;9.004;2022-08-05T01:59:34;98862.44;;;26.69;44.26
59063;BME280;44851;45.648;9.004;2022-08-05T02:02:01;98859.19;;;26.67;44.91
59063;BME280;44851;45.648;9.004;2022-08-05T02:04:28;98863.63;;;26.78;44.43
59063;BME280;44851;45.648;9.004;2022-08-05T02:06:56;98860.94;;;26.78;44.48
59063;BME280;44851;45.648;9.004;2022-08-05T02:09:23;98860.75;;;26.85;43.97
59063;BME280;44851;45.648;9.004;2022-08-05T02:12:00;98860.25;;;26.66;44.15
59063;BME280;44851;45.648;9.004;2022-08-05T02:14:42;98859.19;;;26.67;44.06
59063;BME280;44851;45.648;9.004;2022-08-05T02:17:23;98866.59;;;26.60;43.92
59063;BME280;44851;45.648;9.004;2022-08-05T02:19:52;98865.06;;;26.64;43.78
59063;BME280;44851;45.648;9.004;2022-08-05T02:22:29;98856.13;;;26.58;43.73
59063;BME280;44851;45.648;9.004;2022-08-05T02:25:05;98857.84;;;26.64;43.29
59063;BME280;44851;45.648;9.004;2022-08-05T02:27:35;98868.16;;;26.56;43.98
59063;BME280;44851;45.648;9.004;2022-08-05T02:30:02;98868.63;;;26.53;44.13
59063;BME280;44851;45.648;9.004;2022-08-05T02:32:29;98867.16;;;26.62;43.66
59063;BME280;44851;45.648;9.004;2022-08-05T02:34:58;98865.00;;;26.59;43.71
59063;BME280;44851;45.648;9.004;2022-08-05T02:37:25;98862.19;;;26.49;43.56
59063;BME280;44851;45.648;9.004;2022-08-05T02:39:52;98865.16;;;26.52;43.62
59063;BME280;44851;45.648;9.004;2022-08-05T02:42:18;98866.47;;;26.50;43.78
59063;BME280;44851;45.648;9.004;2022-08-05T02:44:45;98861.19;;;26.55;43.88
59063;BME280;44851;45.648;9.004;2022-08-05T02:47:13;98863.28;;;26.53;43.53
59063;BME280;44851;45.648;9.004;2022-08-05T02:49:40;98854.09;;;26.43;43.84
59063;BME280;44851;45.648;9.004;2022-08-05T02:52:14;98854.91;;;26.44;43.64
59063;BME280;44851;45.648;9.004;2022-08-05T02:54:41;98853.25;;;26.43;43.50
59063;BME280;44851;45.648;9.004;2022-08-05T02:57:11;98857.47;;;26.39;43.64
59063;BME280;44851;45.648;9.004;2022-08-05T02:59:43;98856.66;;;26.38;43.65
59063;BME280;44851;45.648;9.004;2022-08-05T03:02:10;98854.97;;;26.32;44.00
59063;BME280;44851;45.648;9.004;2022-08-05T03:04:36;98858.31;;;26.23;43.69
59063;BME280;44851;45.648;9.004;2022-08-05T03:07:02;98843.69;;;26.30;43.65
59063;BME280;44851;45.648;9.004;2022-08-05T03:09:28;98851.66;;;26.25;43.89
59063;BME280;44851;45.648;9.004;2022-08-05T03:11:54;98844.88;;;26.17;43.64
59063;BME280;44851;45.648;9.004;2022-08-05T03:14:19;98852.00;;;26.12;43.88
59063;BME280;44851;45.648;9.004;2022-08-05T03:16:45;98856.22;;;26.08;43.72
59063;BME280;44851;45.648;9.004;2022-08-05T03:19:10;98848.19;;;26.08;44.17
59063;BME280;44851;45.648;9.004;2022-08-05T03:21:35;98849.25;;;26.07;44.23
59063;BME280;44851;45.648;9.004;2022-08-05T03:24:01;98847.47;;;26.12;44.16
59063;BME280;44851;45.648;9.004;2022-08-05T03:26:27;98851.03;;;26.18;43.96
59063;BME280;44851;45.648;9.004;2022-08-05T03:28:53;98834.38;;;26.11;43.88
59063;BME280;44851;45.648;9.004;2022-08-05T03:31:18;98837.34;;;25.98;43.47
59063;BME280;44851;45.648;9.004;2022-08-05T03:33:44;98841.41;;;26.00;44.00
59063;BME280;44851;45.648;9.004;2022-08-05T03:36:09;98831.44;;;26.12;44.55
59063;BME280;44851;45.648;9.004;2022-08-05T03:38:39;98830.41;;;25.97;44.16
59063;BME280;44851;45.648;9.004;2022-08-05T03:41:04;98831.19;;;25.97;44.45
59063;BME280;44851;45.648;9.004;2022-08-05T03:43:30;98830.78;;;25.88;44.15
59063;BME280;44851;45.648;9.004;2022-08-05T03:45:55;98825.94;;;25.85;45.29
59063;BME280;44851;45.648;9.004;2022-08-05T03:48:20;98820.63;;;25.85;45.27
59063;BME280;44851;45.648;9.004;2022-08-05T03:50:52;98828.03;;;25.83;46.07
59063;BME280;44851;45.648;9.004;2022-08-05T03:55:54;98823.84;;;25.87;45.27
59063;BME280;44851;45.648;9.004;2022-08-05T03:58:23;98823.53;;;25.84;45.30
59063;BME280;44851;45.648;9.004;2022-08-05T04:00:51;98818.31;;;25.77;46.15
59063;BME280;44851;45.648;9.004;2022-08-05T04:03:18;98823.66;;;25.77;45.41
59063;BME280;44851;45.648;9.004;2022-08-05T04:05:45;98818.00;;;25.74;45.85
59063;BME280;44851;45.648;9.004;2022-08-05T04:08:11;98830.53;;;25.73;46.16
59063;BME280;44851;45.648;9.004;2022-08-05T04:10:38;98823.81;;;25.70;45.52
59063;BME280;44851;45.648;9.004;2022-08-05T04:13:05;98828.19;;;25.77;45.89
59063;BME280;44851;45.648;9.004;2022-08-05T04:15:30;98825.59;;;25.65;46.29
59063;BME280;44851;45.648;9.004;2022-08-05T04:17:56;98828.34;;;25.70;46.45
59063;BME280;44851;45.648;9.004;2022-08-05T04:20:25;98825.13;;;25.68;46.76
59063;BME280;44851;45.648;9.004;2022-08-05T04:22:51;98828.97;;;25.77;45.93
59063;BME280;44851;45.648;9.004;2022-08-05T04:25:16;98826.91;;;25.79;45.73
59063;BME280;44851;45.648;9.004;2022-08-05T04:27:41;98823.81;;;25.70;45.86
59063;BME280;44851;45.648;9.004;2022-08-05T04:30:08;98822.91;;;25.65;46.38
59063;BME280;44851;45.648;9.004;2022-08-05T04:32:33;98829.41;;;25.69;47.31
59063;BME280;44851;45.648;9.004;2022-08-05T04:34:59;98834.03;;;25.74;46.28
59063;BME280;44851;45.648;9.004;2022-08-05T04:37:25;98838.66;;;25.50;47.81
59063;BME280;44851;45.648;9.004;2022-08-05T04:39:50;98834.13;;;25.50;48.11
59063;BME280;44851;45.648;9.004;2022-08-05T04:42:15;98840.56;;;25.66;47.53
59063;BME280;44851;45.648;9.004;2022-08-05T04:44:41;98846.59;;;25.44;47.94
59063;BME280;44851;45.648;9.004;2022-08-05T04:47:06;98843.53;;;25.53;47.68
59063;BME280;44851;45.648;9.004;2022-08-05T04:49:31;98838.66;;;25.50;47.97
59063;BME280;44851;45.648;9.004;2022-08-05T04:51:57;98837.72;;;25.56;47.66
59063;BME280;44851;45.648;9.004;2022-08-05T04:54:22;98844.19;;;25.60;47.56
59063;BME280;44851;45.648;9.004;2022-08-05T04:56:54;98843.72;;;25.63;47.32
59063;BME280;44851;45.648;9.004;2022-08-05T04:59:20;98845.16;;;25.54;47.70
59063;BME280;44851;45.648;9.004;2022-08-05T05:01:47;98843.63;;;25.58;47.23
59063;BME280;44851;45.648;9.004;2022-08-05T05:04:13;98843.53;;;25.53;46.54
59063;BME280;44851;45.648;9.004;2022-08-05T05:06:38;98849.44;;;25.55;47.47
59063;BME280;44851;45.648;9.004;2022-08-05T05:09:04;98851.56;;;25.53;47.21
59063;BME280;44851;45.648;9.004;2022-08-05T05:11:29;98851.22;;;25.66;47.70
59063;BME280;44851;45.648;9.004;2022-08-05T05:13:54;98850.84;;;25.74;48.21
59063;BME280;44851;45.648;9.004;2022-08-05T05:16:20;98853.09;;;25.65;47.03
59063;BME280;44851;45.648;9.004;2022-08-05T05:18:45;98856.00;;;25.64;47.18
59063;BME280;44851;45.648;9.004;2022-08-05T05:21:10;98855.75;;;25.65;47.66
59063;BME280;44851;45.648;9.004;2022-08-05T05:23:36;98862.50;;;25.68;48.00
59063;BME280;44851;45.648;9.004;2022-08-05T05:26:01;98861.66;;;25.67;48.46
59063;BME280;44851;45.648;9.004;2022-08-05T05:28:27;98865.38;;;25.66;47.81
59063;BME280;44851;45.648;9.004;2022-08-05T05:30:52;98859.75;;;25.63;47.49
59063;BME280;44851;45.648;9.004;2022-08-05T05:33:17;98859.88;;;25.56;47.85
59063;BME280;44851;45.648;9.004;2022-08-05T05:35:44;98865.19;;;25.56;48.30
59063;BME280;44851;45.648;9.004;2022-08-05T05:38:11;98868.47;;;25.75;47.88
59063;BME280;44851;45.648;9.004;2022-08-05T05:40:37;98869.28;;;25.76;48.09
59063;BME280;44851;45.648;9.004;2022-08-05T05:43:02;98869.63;;;25.79;47.84
59063;BME280;44851;45.648;9.004;2022-08-05T05:45:28;98873.53;;;25.88;48.13
59063;BME280;44851;45.648;9.004;2022-08-05T05:47:53;98871.44;;;25.90;48.21
59063;BME280;44851;45.648;9.004;2022-08-05T05:50:18;98863.00;;;25.99;47.50
59063;BME280;44851;45.648;9.004;2022-08-05T05:52:46;98870.63;;;25.90;46.97
59063;BME280;44851;45.648;9.004;2022-08-05T05:55:13;98866.34;;;26.06;46.18
59063;BME280;44851;45.648;9.004;2022-08-05T05:57:40;98862.91;;;26.10;46.82
59063;BME280;44851;45.648;9.004;2022-08-05T06:00:10;98869.47;;;26.03;46.69
59063;BME280;44851;45.648;9.004;2022-08-05T06:02:35;98867.94;;;26.07;46.94
59063;BME280;44851;45.648;9.004;2022-08-05T06:05:01;98872.72;;;26.21;46.31
59063;BME280;44851;45.648;9.004;2022-08-05T06:07:26;98877.72;;;26.18;47.00
59063;BME280;44851;45.648;9.004;2022-08-05T06:09:51;98875.16;;;26.23;48.35
59063;BME280;44851;45.648;9.004;2022-08-05T06:12:17;98877.88;;;26.28;48.36
59063;BME280;44851;45.648;9.004;2022-08-05T06:14:42;98871.56;;;26.34;47.84
59063;BME280;44851;45.648;9.004;2022-08-05T06:17:09;98865.88;;;26.31;47.19
59063;BME280;44851;45.648;9.004;2022-08-05T06:19:35;98874.47;;;26.50;47.54
59063;BME280;44851;45.648;9.004;2022-08-05T06:22:01;98875.38;;;26.77;45.19
59063;BME280;44851;45.648;9.004;2022-08-05T06:24:27;98874.38;;;26.83;45.93
59063;BME280;44851;45.648;9.004;2022-08-05T06:26:52;98875.63;;;26.97;46.70
59063;BME280;44851;45.648;9.004;2022-08-05T06:29:19;98883.88;;;27.13;47.18
59063;BME280;44851;45.648;9.004;2022-08-05T06:31:44;98881.91;;;27.30;46.18
59063;BME280;44851;45.648;9.004;2022-08-05T06:34:09;98883.91;;;27.40;46.79
59063;BME280;44851;45.648;9.004;2022-08-05T06:36:35;98887.00;;;27.59;46.24
59063;BME280;44851;45.648;9.004;2022-08-05T06:39:00;98887.66;;;27.66;45.82
59063;BME280;44851;45.648;9.004;2022-08-05T06:41:25;98879.63;;;27.98;45.54
59063;BME280;44851;45.648;9.004;2022-08-05T06:43:51;98887.44;;;28.05;45.85
59063;BME280;44851;45.648;9.004;2022-08-05T06:46:16;98891.31;;;28.19;43.30
59063;BME280;44851;45.648;9.004;2022-08-05T06:48:42;98889.88;;;28.43;44.01
59063;BME280;44851;45.648;9.004;2022-08-05T06:51:07;98888.94;;;28.65;42.83
59063;BME280;44851;45.648;9.004;2022-08-05T06:53:32;98891.22;;;28.83;40.21
59063;BME280;44851;45.648;9.004;2022-08-05T06:56:00;98889.34;;;28.89;37.72
59063;BME280;44851;45.648;9.004;2022-08-05T06:58:27;98888.06;;;29.01;36.46
59063;BME280;44851;45.648;9.004;2022-08-05T07:00:53;98896.19;;;29.22;35.83
59063;BME280;44851;45.648;9.004;2022-08-05T07:03:18;98890.28;;;29.30;35.77
59063;BME280;44851;45.648;9.004;2022-08-05T07:05:44;98888.66;;;29.29;36.63
59063;BME280;44851;45.648;9.004;2022-08-05T07:08:10;98889.28;;;29.46;36.52
59063;BME280;44851;45.648;9.004;2022-08-05T07:10:36;98885.56;;;29.68;34.74
59063;BME280;44851;45.648;9.004;2022-08-05T07:13:02;98883.94;;;29.72;35.51
59063;BME280;44851;45.648;9.004;2022-08-05T07:15:45;98879.63;;;29.55;35.24
59063;BME280;44851;45.648;9.004;2022-08-05T07:18:30;98889.06;;;29.73;34.89
59063;BME280;44851;45.648;9.004;2022-08-05T07:20:55;98890.09;;;29.67;36.75
59063;BME280;44851;45.648;9.004;2022-08-05T07:23:20;98891.72;;;29.58;37.26
59063;BME280;44851;45.648;9.004;2022-08-05T07:25:46;98883.91;;;29.46;37.05
59063;BME280;44851;45.648;9.004;2022-08-05T07:28:11;98887.66;;;29.40;35.12
59063;BME280;44851;45.648;9.004;2022-08-05T07:30:37;98884.97;;;29.40;35.19
59063;BME280;44851;45.648;9.004;2022-08-05T07:33:04;98878.53;;;29.41;34.91
59063;BME280;44851;45.648;9.004;2022-08-05T07:35:30;98877.97;;;29.34;35.75
59063;BME280;44851;45.648;9.004;2022-08-05T07:37:56;98879.34;;;29.42;34.89
59063;BME280;44851;45.648;9.004;2022-08-05T07:40:21;98876.38;;;29.38;35.38
59063;BME280;44851;45.648;9.004;2022-08-05T07:42:47;98877.50;;;29.63;34.87
59063;BME280;44851;45.648;9.004;2022-08-05T07:45:13;98879.91;;;29.64;33.36
59063;BME280;44851;45.648;9.004;2022-08-05T07:47:39;98881.22;;;29.41;35.47
59063;BME280;44851;45.648;9.004;2022-08-05T07:50:05;98873.16;;;29.56;34.10
59063;BME280;44851;45.648;9.004;2022-08-05T07:52:31;98882.28;;;29.50;33.43
59063;BME280;44851;45.648;9.004;2022-08-05T07:54:56;98878.25;;;29.43;36.28
59063;BME280;44851;45.648;9.004;2022-08-05T07:57:21;98874.81;;;29.57;36.81
59063;BME280;44851;45.648;9.004;2022-08-05T07:59:47;98880.41;;;29.46;35.85
59063;BME280;44851;45.648;9.004;2022-08-05T08:02:13;98882.28;;;29.50;35.12
59063;BME280;44851;45.648;9.004;2022-08-05T08:04:38;98873.16;;;29.56;35.88
59063;BME280;44851;45.648;9.004;2022-08-05T08:07:04;98867.81;;;29.67;35.04
59063;BME280;44851;45.648;9.004;2022-08-05T08:09:30;98869.41;;;29.78;34.23
59063;BME280;44851;45.648;9.004;2022-08-05T08:11:55;98872.09;;;29.83;36.03
59063;BME280;44851;45.648;9.004;2022-08-05T08:14:21;98872.16;;;29.88;35.97
59063;BME280;44851;45.648;9.004;2022-08-05T08:16:46;98865.72;;;29.99;36.71
59063;BME280;44851;45.648;9.004;2022-08-05T08:19:11;98866.22;;;30.17;34.70
59063;BME280;44851;45.648;9.004;2022-08-05T08:21:37;98866.19;;;30.47;34.91
59063;BME280;44851;45.648;9.004;2022-08-05T08:24:02;98862.41;;;30.53;33.18
59063;BME280;44851;45.648;9.004;2022-08-05T08:26:28;98863.69;;;30.66;33.53
59063;BME280;44851;45.648;9.004;2022-08-05T08:28:53;98864.94;;;30.94;31.55
59063;BME280;44851;45.648;9.004;2022-08-05T08:31:18;98862.22;;;31.04;32.05
59063;BME280;44851;45.648;9.004;2022-08-05T08:33:44;98861.03;;;31.26;32.43
59063;BME280;44851;45.648;9.004;2022-08-05T08:36:10;98865.78;;;31.39;32.63
59063;BME280;44851;45.648;9.004;2022-08-05T08:38:35;98858.19;;;31.51;31.99
59063;BME280;44851;45.648;9.004;2022-08-05T08:41:04;98860.38;;;31.83;32.39
59063;BME280;44851;45.648;9.004;2022-08-05T08:43:31;98860.47;;;32.07;32.35
59063;BME280;44851;45.648;9.004;2022-08-05T08:45:58;98859.47;;;31.93;30.15
59063;BME280;44851;45.648;9.004;2022-08-05T08:48:26;98855.72;;;31.94;30.70
59063;BME280;44851;45.648;9.004;2022-08-05T08:50:53;98867.22;;;32.05;31.35
59063;BME280;44851;45.648;9.004;2022-08-05T08:53:19;98858.44;;;32.23;30.43
59063;BME280;44851;45.648;9.004;2022-08-05T08:55:46;98862.31;;;32.36;31.18
59063;BME280;44851;45.648;9.004;2022-08-05T08:58:14;98859.81;;;32.68;30.73
59063;BME280;44851;45.648;9.004;2022-08-05T09:00:40;98862.59;;;32.63;29.93
59063;BME280;44851;45.648;9.004;2022-08-05T09:03:06;98867.41;;;32.66;30.21
59063;BME280;44851;45.648;9.004;2022-08-05T09:05:32;98862.34;;;32.84;29.96
59063;BME280;44851;45.648;9.004;2022-08-05T09:07:57;98862.78;;;32.91;28.93
59063;BME280;44851;45.648;9.004;2022-08-05T09:10:23;98864.69;;;32.90;28.76
59063;BME280;44851;45.648;9.004;2022-08-05T09:12:49;98863.28;;;32.98;28.92
59063;BME280;44851;45.648;9.004;2022-08-05T09:15:14;98855.53;;;33.29;29.57
59063;BME280;44851;45.648;9.004;2022-08-05T09:17:40;98850.94;;;33.30;27.98
59063;BME280;44851;45.648;9.004;2022-08-05T09:20:06;98847.66;;;33.33;28.36
59063;BME280;44851;45.648;9.004;2022-08-05T09:25:32;98847.53;;;33.43;29.57
59063;BME280;44851;45.648;9.004;2022-08-05T09:28:12;98835.22;;;33.69;29.03
59063;BME280;44851;45.648;9.004;2022-08-05T09:30:41;98838.09;;;33.92;28.51
59063;BME280;44851;45.648;9.004;2022-08-05T09:33:07;98841.91;;;33.91;27.89
59063;BME280;44851;45.648;9.004;2022-08-05T09:35:32;98836.50;;;33.91;27.54
59063;BME280;44851;45.648;9.004;2022-08-05T09:37:58;98837.13;;;34.02;28.11
59063;BME280;44851;45.648;9.004;2022-08-05T09:40:32;98837.50;;;33.95;28.23
59063;BME280;44851;45.648;9.004;2022-08-05T09:42:59;98828.72;;;34.17;28.61
59063;BME280;44851;45.648;9.004;2022-08-05T09:45:41;98830.72;;;34.11;27.80
59063;BME280;44851;45.648;9.004;2022-08-05T09:50:50;98818.91;;;34.35;28.22
59063;BME280;44851;45.648;9.004;2022-08-05T09:53:17;98819.94;;;34.53;29.13
59063;BME280;44851;45.648;9.004;2022-08-05T09:55:43;98818.31;;;34.52;28.39
59063;BME280;44851;45.648;9.004;2022-08-05T09:58:13;98825.53;;;34.70;27.77
59063;BME280;44851;45.648;9.004;2022-08-05T10:01:00;98825.75;;;34.73;28.35
59063;BME280;44851;45.648;9.004;2022-08-05T10:03:27;98814.34;;;34.63;27.44
59063;BME280;44851;45.648;9.004;2022-08-05T10:06:07;98811.91;;;34.61;27.10
59063;BME280;44851;45.648;9.004;2022-08-05T10:08:34;98810.69;;;34.95;28.90
59063;BME280;44851;45.648;9.004;2022-08-05T10:11:12;98802.03;;;34.93;27.38
59063;BME280;44851;45.648;9.004;2022-08-05T10:13:38;98804.03;;;35.01;27.38
59063;BME280;44851;45.648;9.004;2022-08-05T10:16:05;98801.00;;;35.16;25.96
59063;BME280;44851;45.648;9.004;2022-08-05T10:18:31;98807.69;;;35.33;26.77
59063;BME280;44851;45.648;9.004;2022-08-05T10:21:03;98800.41;;;35.64;27.17
59063;BME280;44851;45.648;9.004;2022-08-05T10:23:34;98798.19;;;35.44;25.32
59063;BME280;44851;45.648;9.004;2022-08-05T10:26:03;98796.44;;;35.48;26.20
59063;BME280;44851;45.648;9.004;2022-08-05T10:28:29;98800.38;;;35.42;25.81
59063;BME280;44851;45.648;9.004;2022-08-05T10:30:55;98796.41;;;35.25;27.36
59063;BME280;44851;45.648;9.004;2022-08-05T10:33:22;98794.81;;;35.38;26.35
59063;BME280;44851;45.648;9.004;2022-08-05T10:35:49;98789.03;;;35.62;26.21
59063;BME280;44851;45.648;9.004;2022-08-05T10:38:15;98788.75;;;35.41;26.23
59063;BME280;44851;45.648;9.004;2022-08-05T10:46:11;98793.59;;;35.53;25.09
59063;BME280;44851;45.648;9.004;2022-08-05T10:48:38;98781.44;;;35.73;25.35
59063;BME280;44851;45.648;9.004;2022-08-05T10:51:14;98776.78;;;35.87;26.27
59063;BME280;44851;45.648;9.004;2022-08-05T10:56:16;98780.84;;;36.07;26.02
59063;BME280;44851;45.648;9.004;2022-08-05T11:01:35;98771.91;;;36.15;25.07
59063;BME280;44851;45.648;9.004;2022-08-05T11:06:28;98766.25;;;36.25;25.00
59063;BME280;44851;45.648;9.004;2022-08-05T11:12:00;98773.94;;;36.41;24.74
59063;BME280;44851;45.648;9.004;2022-08-05T11:14:31;98767.13;;;36.12;24.85
59063;BME280;44851;45.648;9.004;2022-08-05T11:19:52;98758.78;;;36.48;26.22
59063;BME280;44851;45.648;9.004;2022-08-05T11:22:41;98759.94;;;36.56;24.89
59063;BME280;44851;45.648;9.004;2022-08-05T11:27:55;98765.06;;;36.66;24.65
59063;BME280;44851;45.648;9.004;2022-08-05T11:30:20;98758.16;;;36.51;25.21
59063;BME280;44851;45.648;9.004;2022-08-05T11:32:46;98755.72;;;36.33;24.71
59063;BME280;44851;45.648;9.004;2022-08-05T11:38:18;98748.09;;;36.52;25.29
59063;BME280;44851;45.648;9.004;2022-08-05T11:43:32;98738.06;;;36.96;24.46
59063;BME280;44851;45.648;9.004;2022-08-05T11:45:58;98741.44;;;36.93;23.86
59063;BME280;44851;45.648;9.004;2022-08-05T11:48:24;98739.19;;;36.95;24.08
59063;BME280;44851;45.648;9.004;2022-08-05T11:50:51;98734.41;;;37.09;24.39
59063;BME280;44851;45.648;9.004;2022-08-05T11:53:16;98727.19;;;37.22;24.07
59063;BME280;44851;45.648;9.004;2022-08-05T11:55:57;98718.59;;;37.20;23.25
59063;BME280;44851;45.648;9.004;2022-08-05T11:58:43;98722.22;;;37.33;23.75
59063;BME280;44851;45.648;9.004;2022-08-05T12:01:16;98720.81;;;37.18;23.37
59063;BME280;44851;45.648;9.004;2022-08-05T12:03:55;98723.22;;;37.19;23.63
59063;BME280;44851;45.648;9.004;2022-08-05T12:06:25;98710.97;;;37.60;23.87
59063;BME280;44851;45.648;9.004;2022-08-05T12:08:55;98717.38;;;37.64;23.04
59063;BME280;44851;45.648;9.004;2022-08-05T12:13:57;98705.97;;;37.71;21.95
59063;BME280;44851;45.648;9.004;2022-08-05T12:16:25;98709.88;;;37.44;21.98
59063;BME280;44851;45.648;9.004;2022-08-05T12:18:51;98702.50;;;37.53;22.11
59063;BME280;44851;45.648;9.004;2022-08-05T12:21:28;98696.47;;;37.39;22.55
59063;BME280;44851;45.648;9.004;2022-08-05T12:24:05;98695.25;;;37.19;22.46
59063;BME280;44851;45.648;9.004;2022-08-05T12:29:02;98695.31;;;37.40;22.36
59063;BME280;44851;45.648;9.004;2022-08-05T12:31:30;98690.00;;;37.61;22.16
59063;BME280;44851;45.648;9.004;2022-08-05T12:33:56;98687.31;;;37.52;22.44
59063;BME280;44851;45.648;9.004;2022-08-05T12:36:22;98681.59;;;37.83;22.21
59063;BME280;44851;45.648;9.004;2022-08-05T12:38:47;98674.25;;;37.83;21.60
59063;BME280;44851;45.648;9.004;2022-08-05T12:41:14;98669.28;;;38.15;22.99
59063;BME280;44851;45.648;9.004;2022-08-05T12:43:50;98666.28;;;38.08;20.80
59063;BME280;44851;45.648;9.004;2022-08-05T12:46:23;98664.16;;;38.14;21.13
59063;BME280;44851;45.648;9.004;2022-08-05T12:49:12;98660.81;;;38.08;21.79
59063;BME280;44851;45.648;9.004;2022-08-05T12:51:47;98654.91;;;37.76;21.18
59063;BME280;44851;45.648;9.004;2022-08-05T12:54:21;98654.53;;;37.87;21.29
59063;BME280;44851;45.648;9.004;2022-08-05T12:57:07;98650.00;;;37.99;22.12
59063;BME280;44851;45.648;9.004;2022-08-05T13:02:11;98646.31;;;38.04;21.96
59063;BME280;44851;45.648;9.004;2022-08-05T13:04:39;98647.03;;;38.13;21.57
59063;BME280;44851;45.648;9.004;2022-08-05T13:07:08;98643.06;;;38.11;21.89
59063;BME280;44851;45.648;9.004;2022-08-05T13:09:39;98646.16;;;38.00;21.64
59063;BME280;44851;45.648;9.004;2022-08-05T13:12:13;98639.84;;;38.29;21.92
59063;BME280;44851;45.648;9.004;2022-08-05T13:14:58;98653.88;;;38.19;22.03
59063;BME280;44851;45.648;9.004;2022-08-05T13:17:26;98644.84;;;37.98;22.31
59063;BME280;44851;45.648;9.004;2022-08-05T13:22:45;98642.06;;;37.86;21.43
59063;BME280;44851;45.648;9.004;2022-08-05T13:25:13;98646.78;;;38.27;22.00
59063;BME280;44851;45.648;9.004;2022-08-05T13:27:48;98645.44;;;38.12;22.17
59063;BME280;44851;45.648;9.004;2022-08-05T13:30:18;98643.53;;;38.33;21.82
59063;BME280;44851;45.648;9.004;2022-08-05T13:32:45;98646.31;;;38.46;21.61
59063;BME280;44851;45.648;9.004;2022-08-05T13:35:13;98649.66;;;38.51;21.96
59063;BME280;44851;45.648;9.004;2022-08-05T13:37:39;98650.03;;;38.62;21.62
59063;BME280;44851;45.648;9.004;2022-08-05T13:40:05;98650.91;;;38.54;22.19
59063;BME280;44851;45.648;9.004;2022-08-05T13:42:31;98648.66;;;38.56;21.80
59063;BME280;44851;45.648;9.004;2022-08-05T13:44:56;98650.75;;;38.71;21.94
59063;BME280;44851;45.648;9.004;2022-08-05T13:47:23;98657.78;;;38.72;21.24
59063;BME280;44851;45.648;9.004;2022-08-05T13:49:49;98658.22;;;38.41;21.34
59063;BME280;44851;45.648;9.004;2022-08-05T13:52:20;98657.38;;;38.41;21.71
59063;BME280;44851;45.648;9.004;2022-08-05T13:54:47;98657.91;;;38.43;22.47